Time;durP1;ratioP1;P1;durP2;ratioP2;P2;SDS_P1;SDS_P2;PMS_P1;PMS_P2;Temp;Humidity;BMP_temperature;BMP_pressure;BME280_temperature;BME280_humidity;BME280_pressure;Samples;Min_cycle;Max_cycle;Signal;HPM_P1;HPM_P2
2021/04/16 00:00:41;;;;;;;3.27;2.97;;;3.90;99.90;;;;;;5026612;28;21881;-75
2021/04/16 00:03:07;;;;;;;3.70;3.40;;;4.10;99.90;;;;;;5023145;28;20443;-77
2021/04/16 00:05:34;;;;;;;3.30;3.00;;;4.00;99.90;;;;;;5019830;28;20426;-76
2021/04/16 00:08:00;;;;;;;3.37;3.07;;;4.00;99.90;;;;;;5028128;28;20517;-74
2021/04/16 00:10:37;;;;;;;3.10;2.80;;;4.00;99.90;;;;;;5025938;28;20454;-75
2021/04/16 00:13:04;;;;;;;4.27;3.37;;;3.90;99.90;;;;;;5021308;28;20847;-76
2021/04/16 00:15:32;;;;;;;3.40;2.80;;;4.00;99.90;;;;;;5023391;28;20558;-76
2021/04/16 00:17:57;;;;;;;5.00;3.07;;;4.00;99.90;;;;;;5027665;28;20469;-75
2021/04/16 00:20:28;;;;;;;3.43;3.00;;;4.00;99.90;;;;;;5026637;28;21012;-76
2021/04/16 00:22:53;;;;;;;3.50;3.20;;;3.90;99.90;;;;;;5019383;28;20184;-75
2021/04/16 00:25:23;;;;;;;4.20;3.20;;;3.90;99.90;;;;;;5015724;28;20860;-75
2021/04/16 00:27:49;;;;;;;3.73;3.43;;;3.90;99.90;;;;;;5024632;28;20191;-75
2021/04/16 00:30:16;;;;;;;3.33;3.07;;;3.90;99.90;;;;;;5022060;28;20457;-75
2021/04/16 00:32:42;;;;;;;3.50;3.20;;;4.00;99.90;;;;;;5024864;28;20523;-74
2021/04/16 00:35:09;;;;;;;3.87;3.47;;;3.90;99.90;;;;;;5019651;28;20863;-75
2021/04/16 00:37:35;;;;;;;3.57;3.30;;;4.00;99.90;;;;;;5023318;28;20439;-75
2021/04/16 00:40:01;;;;;;;3.60;3.30;;;4.00;99.90;;;;;;5024207;28;20431;-75
2021/04/16 00:42:26;;;;;;;3.40;3.10;;;4.10;99.90;;;;;;5039939;28;20472;-76
2021/04/16 00:44:52;;;;;;;8.50;4.00;;;4.10;99.90;;;;;;5037094;28;20187;-76
2021/04/16 00:47:21;;;;;;;3.43;3.13;;;4.10;99.90;;;;;;5035370;28;20217;-76
2021/04/16 00:49:51;;;;;;;3.70;3.40;;;4.10;99.90;;;;;;5039613;28;20453;-75
2021/04/16 00:52:25;;;;;;;4.43;3.30;;;4.10;99.90;;;;;;5037413;22;20502;-74
2021/04/16 00:54:51;;;;;;;4.23;3.90;;;4.10;99.90;;;;;;5016983;28;20473;-74
2021/04/16 00:57:17;;;;;;;3.67;3.33;;;4.20;99.90;;;;;;5000080;28;20499;-74
2021/04/16 00:59:51;;;;;;;4.13;3.70;;;4.20;99.90;;;;;;5004162;28;20241;-75
2021/04/16 01:02:16;;;;;;;3.97;3.57;;;4.20;99.90;;;;;;4997582;28;20216;-73
2021/04/16 01:04:42;;;;;;;4.30;3.77;;;4.20;99.90;;;;;;4989781;28;20676;-73
2021/04/16 01:07:09;;;;;;;3.70;3.40;;;4.20;99.90;;;;;;5008027;28;20660;-74
2021/04/16 01:09:35;;;;;;;4.50;4.10;;;4.30;99.90;;;;;;4988613;28;20641;-73
2021/04/16 01:12:07;;;;;;;4.13;3.83;;;4.20;99.90;;;;;;4987380;28;20443;-74
2021/04/16 01:14:34;;;;;;;4.77;4.37;;;4.20;99.90;;;;;;4987086;28;20684;-74
2021/04/16 01:17:00;;;;;;;5.90;3.37;;;4.20;99.90;;;;;;4992508;28;20462;-75
2021/04/16 01:19:34;;;;;;;4.03;3.63;;;4.30;99.90;;;;;;4987697;28;20430;-73
2021/04/16 01:22:18;;;;;;;3.90;3.60;;;4.20;99.90;;;;;;4987795;28;20478;-73
2021/04/16 01:24:44;;;;;;;4.07;3.77;;;4.20;99.90;;;;;;4989813;28;20439;-73
2021/04/16 01:27:13;;;;;;;4.10;3.80;;;4.20;99.90;;;;;;4989447;28;20966;-74
2021/04/16 01:29:46;;;;;;;5.83;3.20;;;4.30;99.90;;;;;;4996748;28;20510;-75
2021/04/16 01:32:21;;;;;;;3.80;3.50;;;4.40;99.90;;;;;;4996664;28;20494;-73
2021/04/16 01:34:47;;;;;;;4.13;3.83;;;4.30;99.90;;;;;;4991931;28;20462;-75
2021/04/16 01:37:12;;;;;;;3.63;3.33;;;4.30;99.90;;;;;;4992294;28;20518;-74
2021/04/16 01:39:38;;;;;;;10.63;4.20;;;4.30;99.90;;;;;;4992408;28;20192;-73
2021/04/16 01:42:04;;;;;;;4.33;4.03;;;4.30;99.90;;;;;;4998932;28;20235;-74
2021/04/16 01:44:30;;;;;;;4.40;4.03;;;4.30;99.90;;;;;;4993250;28;20701;-74
2021/04/16 01:46:58;;;;;;;6.07;4.60;;;4.30;99.90;;;;;;4994719;28;20511;-73
2021/04/16 01:49:42;;;;;;;4.60;4.27;;;4.30;99.90;;;;;;4991469;28;20428;-74
2021/04/16 01:52:11;;;;;;;5.47;4.90;;;4.20;99.90;;;;;;4987558;28;20471;-73
2021/04/16 01:54:40;;;;;;;5.60;5.10;;;4.30;99.90;;;;;;4990536;28;20439;-73
2021/04/16 01:57:10;;;;;;;4.10;3.77;;;4.20;99.90;;;;;;4989331;28;20467;-73
2021/04/16 01:59:38;;;;;;;5.00;4.50;;;4.20;99.90;;;;;;4998810;28;20970;-74
2021/04/16 02:02:07;;;;;;;5.10;3.83;;;4.30;99.90;;;;;;4991504;28;20852;-74
2021/04/16 02:04:33;;;;;;;4.53;4.23;;;4.30;99.90;;;;;;4989241;28;20440;-74
2021/04/16 02:06:58;;;;;;;5.77;4.10;;;4.40;99.90;;;;;;4993312;28;20420;-75
2021/04/16 02:09:27;;;;;;;4.47;4.07;;;4.40;99.90;;;;;;4990379;28;20176;-74
2021/04/16 02:11:53;;;;;;;4.00;3.70;;;4.30;99.90;;;;;;4999948;28;20216;-73
2021/04/16 02:14:23;;;;;;;4.40;4.10;;;4.20;99.90;;;;;;4995388;28;20430;-73
2021/04/16 02:16:51;;;;;;;5.07;4.57;;;4.20;99.90;;;;;;4990314;28;20561;-73
2021/04/16 02:19:16;;;;;;;4.93;4.53;;;4.20;99.90;;;;;;4992475;28;20431;-73
2021/04/16 02:21:42;;;;;;;4.53;4.00;;;4.10;99.90;;;;;;4990291;28;20557;-73
2021/04/16 02:24:10;;;;;;;4.50;4.10;;;4.10;99.90;;;;;;5011998;28;20208;-73
2021/04/16 02:26:36;;;;;;;4.43;4.10;;;4.00;99.90;;;;;;4989244;28;20423;-73
2021/04/16 02:29:07;;;;;;;4.43;4.03;;;4.00;99.90;;;;;;4993414;28;20517;-74
2021/04/16 02:31:34;;;;;;;4.30;4.00;;;3.90;99.90;;;;;;4990112;28;20467;-73
2021/04/16 02:34:00;;;;;;;5.00;4.27;;;3.90;99.90;;;;;;4991749;28;20806;-74
2021/04/16 02:36:26;;;;;;;3.90;3.60;;;3.90;99.90;;;;;;4990003;28;21005;-73
2021/04/16 02:38:53;;;;;;;5.10;4.60;;;3.80;99.90;;;;;;5013302;28;20565;-73
2021/04/16 02:41:20;;;;;;;4.53;4.20;;;3.80;99.90;;;;;;4990912;28;20987;-73
2021/04/16 02:43:46;;;;;;;4.20;3.90;;;3.80;99.90;;;;;;4991793;28;20439;-73
2021/04/16 02:46:12;;;;;;;5.20;4.70;;;3.90;99.90;;;;;;4993594;28;20432;-73
2021/04/16 02:48:38;;;;;;;4.97;4.47;;;3.80;99.90;;;;;;4990223;28;20939;-73
2021/04/16 02:51:04;;;;;;;5.47;5.00;;;3.70;99.90;;;;;;4989647;28;20794;-73
2021/04/16 02:53:29;;;;;;;5.80;5.20;;;3.70;99.90;;;;;;5009403;28;20203;-73
2021/04/16 02:55:55;;;;;;;5.20;4.70;;;3.60;99.90;;;;;;4990715;28;20435;-73
2021/04/16 02:58:20;;;;;;;4.90;4.50;;;3.60;99.90;;;;;;4999907;28;20267;-73
2021/04/16 03:00:46;;;;;;;4.40;4.10;;;3.50;99.90;;;;;;4996942;28;20187;-73
2021/04/16 03:03:12;;;;;;;5.47;5.00;;;3.40;99.90;;;;;;4989335;28;20307;-73
2021/04/16 03:05:37;;;;;;;4.93;4.43;;;3.40;99.90;;;;;;4991135;28;20206;-73
2021/04/16 03:08:03;;;;;;;5.07;4.67;;;3.40;99.90;;;;;;4989499;28;20259;-73
2021/04/16 03:10:32;;;;;;;5.43;4.93;;;3.40;99.90;;;;;;4993808;28;20212;-74
2021/04/16 03:12:58;;;;;;;6.00;5.40;;;3.40;99.90;;;;;;4989454;28;20218;-73
2021/04/16 03:15:23;;;;;;;5.40;4.90;;;3.30;99.90;;;;;;4989444;28;20530;-73
2021/04/16 03:17:49;;;;;;;5.00;4.50;;;3.30;99.90;;;;;;4995693;28;20211;-72
2021/04/16 03:20:17;;;;;;;5.43;5.03;;;3.20;99.90;;;;;;4992530;28;20187;-74
2021/04/16 03:22:42;;;;;;;5.83;5.33;;;3.10;99.90;;;;;;4993093;28;20307;-72
2021/04/16 03:25:10;;;;;;;6.03;5.50;;;3.10;99.90;;;;;;5007615;28;20430;-73
2021/04/16 03:27:36;;;;;;;5.90;5.40;;;3.10;99.90;;;;;;4999120;28;20211;-74
2021/04/16 03:30:09;;;;;;;6.20;5.50;;;3.10;99.90;;;;;;4992092;28;20450;-73
2021/04/16 03:32:35;;;;;;;6.57;5.90;;;3.10;99.90;;;;;;4993732;28;20798;-74
2021/04/16 03:35:01;;;;;;;6.53;5.57;;;3.10;99.90;;;;;;4992440;28;20522;-74
2021/04/16 03:37:26;;;;;;;6.50;5.33;;;3.00;99.90;;;;;;4998762;28;20206;-73
2021/04/16 03:39:52;;;;;;;5.80;5.30;;;3.00;99.90;;;;;;4994065;28;20619;-75
2021/04/16 03:42:18;;;;;;;5.23;4.80;;;3.00;99.90;;;;;;4988983;28;20629;-74
2021/04/16 03:44:43;;;;;;;6.30;5.67;;;2.90;99.90;;;;;;5003512;28;20208;-73
2021/04/16 03:47:09;;;;;;;6.17;5.67;;;2.90;99.90;;;;;;4991714;28;20231;-73
2021/04/16 03:49:34;;;;;;;5.50;5.10;;;2.90;99.90;;;;;;4988721;28;20262;-73
2021/04/16 03:52:03;;;;;;;6.93;6.23;;;2.90;99.90;;;;;;4987877;28;20234;-73
2021/04/16 03:54:29;;;;;;;7.10;6.37;;;3.00;99.90;;;;;;4988594;28;20181;-73
2021/04/16 03:56:55;;;;;;;6.17;5.57;;;3.00;99.90;;;;;;4990184;28;20450;-74
2021/04/16 03:59:22;;;;;;;7.57;5.63;;;3.00;99.90;;;;;;4994377;28;20648;-74
2021/04/16 04:01:48;;;;;;;7.47;6.80;;;3.10;99.90;;;;;;4992809;28;20286;-72
2021/04/16 04:04:14;;;;;;;6.40;5.83;;;3.10;99.90;;;;;;4988510;28;20470;-73
2021/04/16 04:06:40;;;;;;;7.20;6.60;;;3.00;99.90;;;;;;4992526;28;20538;-74
2021/04/16 04:09:06;;;;;;;6.30;5.70;;;3.00;99.90;;;;;;4989531;28;20435;-73
2021/04/16 04:11:32;;;;;;;6.70;6.10;;;3.00;99.90;;;;;;4984756;28;20243;-74
2021/04/16 04:13:59;;;;;;;6.83;5.63;;;3.00;99.90;;;;;;4988394;28;20188;-73
2021/04/16 04:16:25;;;;;;;7.03;5.90;;;3.10;99.90;;;;;;4995452;28;20807;-74
2021/04/16 04:18:50;;;;;;;7.70;6.70;;;3.20;99.90;;;;;;4991110;28;20614;-74
2021/04/16 04:21:16;;;;;;;6.47;5.87;;;3.20;99.90;;;;;;4992638;28;20546;-74
2021/04/16 04:23:42;;;;;;;6.53;5.93;;;3.10;99.90;;;;;;4987921;28;20654;-74
2021/04/16 04:26:08;;;;;;;6.43;5.83;;;3.20;99.90;;;;;;4989126;28;20732;-73
2021/04/16 04:28:34;;;;;;;5.67;4.80;;;3.20;99.90;;;;;;4987899;28;20253;-74
2021/04/16 04:31:00;;;;;;;8.00;7.00;;;3.30;99.90;;;;;;4993423;28;20561;-74
2021/04/16 04:33:25;;;;;;;7.00;6.40;;;3.30;99.90;;;;;;4987851;28;20442;-73
2021/04/16 04:35:51;;;;;;;6.13;5.27;;;3.30;99.90;;;;;;4987543;28;20189;-74
2021/04/16 04:38:17;;;;;;;6.00;5.40;;;3.30;99.90;;;;;;4988747;28;20311;-73
2021/04/16 04:40:43;;;;;;;6.80;6.30;;;3.40;99.90;;;;;;4993385;28;20210;-74
2021/04/16 04:43:09;;;;;;;7.80;6.17;;;3.40;99.90;;;;;;4987164;28;20439;-73
2021/04/16 04:45:35;;;;;;;5.93;5.43;;;3.40;99.90;;;;;;4987796;28;20744;-72
2021/04/16 04:48:02;;;;;;;6.63;5.93;;;3.30;99.90;;;;;;4987825;28;20185;-73
2021/04/16 04:50:27;;;;;;;6.87;6.00;;;3.30;99.90;;;;;;4986453;28;20427;-72
2021/04/16 04:52:54;;;;;;;5.87;5.40;;;3.30;99.90;;;;;;4990088;28;20521;-74
2021/04/16 04:55:27;;;;;;;7.30;6.60;;;3.30;99.90;;;;;;4994414;28;20597;-73
2021/04/16 04:57:52;;;;;;;6.70;6.10;;;3.30;99.90;;;;;;4984349;28;20474;-73
2021/04/16 05:00:19;;;;;;;6.47;5.80;;;3.30;99.90;;;;;;4984388;28;20435;-74
2021/04/16 05:02:44;;;;;;;6.77;5.93;;;3.30;99.90;;;;;;5006925;28;20756;-72
2021/04/16 05:05:12;;;;;;;7.90;6.67;;;3.30;99.90;;;;;;4988689;28;20431;-74
2021/04/16 05:07:37;;;;;;;6.97;6.17;;;3.30;99.90;;;;;;4988165;28;20196;-73
2021/04/16 05:10:05;;;;;;;6.37;5.70;;;3.20;99.90;;;;;;4987837;28;20451;-75
2021/04/16 05:12:31;;;;;;;6.90;6.10;;;3.20;99.90;;;;;;4988834;28;20220;-74
2021/04/16 05:14:57;;;;;;;11.33;6.40;;;3.20;99.90;;;;;;4987960;28;20522;-73
2021/04/16 05:17:22;;;;;;;6.17;5.57;;;3.20;99.90;;;;;;4990870;28;20628;-73
2021/04/16 05:19:48;;;;;;;6.87;6.23;;;3.20;99.90;;;;;;4987627;28;20181;-73
2021/04/16 05:22:15;;;;;;;8.10;6.60;;;3.20;99.90;;;;;;4988171;28;20204;-74
2021/04/16 05:24:40;;;;;;;7.20;6.50;;;3.20;99.90;;;;;;4994819;28;20649;-73
2021/04/16 05:27:09;;;;;;;7.70;6.60;;;3.30;99.90;;;;;;5004675;28;20428;-75
2021/04/16 05:29:35;;;;;;;6.90;6.30;;;3.30;99.90;;;;;;4994921;28;20246;-73
2021/04/16 05:32:02;;;;;;;6.40;5.90;;;3.30;99.90;;;;;;4987060;28;20467;-74
2021/04/16 05:34:27;;;;;;;6.67;5.97;;;3.40;99.90;;;;;;4990334;28;20923;-74
2021/04/16 05:36:54;;;;;;;7.03;6.33;;;3.40;99.90;;;;;;4986897;28;20428;-75
2021/04/16 05:39:20;;;;;;;6.40;5.90;;;3.50;99.90;;;;;;4987155;28;20193;-74
2021/04/16 05:41:46;;;;;;;7.63;6.57;;;3.50;99.90;;;;;;4987203;28;20462;-78
2021/04/16 05:44:11;;;;;;;7.63;6.93;;;3.60;99.90;;;;;;5002090;28;20176;-79
2021/04/16 05:46:37;;;;;;;6.80;6.20;;;3.70;99.90;;;;;;4988934;28;20438;-73
2021/04/16 05:49:04;;;;;;;14.10;8.93;;;3.70;99.90;;;;;;4986971;28;20236;-73
2021/04/16 05:51:29;;;;;;;7.20;6.50;;;3.80;99.90;;;;;;4981276;28;20230;-74
2021/04/16 05:53:55;;;;;;;6.60;5.90;;;4.00;99.90;;;;;;5001820;28;20424;-76
2021/04/16 05:56:21;;;;;;;6.77;5.97;;;4.20;99.90;;;;;;4988178;28;20211;-75
2021/04/16 05:58:46;;;;;;;7.00;6.30;;;4.30;99.90;;;;;;4983556;28;20583;-71
2021/04/16 06:01:12;;;;;;;6.30;5.70;;;4.40;99.90;;;;;;4981722;28;20199;-72
2021/04/16 06:03:40;;;;;;;6.73;5.80;;;4.40;99.90;;;;;;4986121;28;20236;-72
2021/04/16 06:06:06;;;;;;;8.00;5.80;;;4.40;99.90;;;;;;4986625;28;20638;-73
2021/04/16 06:08:31;;;;;;;6.40;5.80;;;4.50;99.90;;;;;;4986783;28;20438;-72
2021/04/16 06:10:59;;;;;;;7.20;6.50;;;4.50;99.90;;;;;;4985129;28;20446;-73
2021/04/16 06:13:25;;;;;;;8.07;6.10;;;4.70;99.90;;;;;;4987339;28;20184;-73
2021/04/16 06:15:52;;;;;;;6.77;6.13;;;4.80;99.90;;;;;;4990780;28;20447;-73
2021/04/16 06:18:19;;;;;;;6.47;5.87;;;4.90;99.90;;;;;;4988904;28;20550;-73
2021/04/16 06:20:45;;;;;;;6.40;5.80;;;4.90;99.90;;;;;;4990258;28;20458;-72
2021/04/16 06:23:11;;;;;;;6.90;6.30;;;4.90;99.90;;;;;;4991380;28;21016;-71
2021/04/16 06:25:36;;;;;;;7.07;6.13;;;5.00;99.90;;;;;;4991044;28;20180;-73
2021/04/16 06:28:04;;;;;;;6.57;5.97;;;5.10;99.90;;;;;;4988905;28;20208;-73
2021/04/16 06:30:29;;;;;;;7.33;6.10;;;5.10;99.90;;;;;;4988618;28;20185;-73
2021/04/16 06:33:17;;;;;;;6.63;5.90;;;5.20;99.90;;;;;;4989887;28;20874;-73
2021/04/16 06:35:48;;;;;;;5.73;5.23;;;5.20;99.90;;;;;;4991257;28;20255;-72
2021/04/16 06:38:16;;;;;;;6.50;5.60;;;5.30;99.90;;;;;;4989823;28;20904;-72
2021/04/16 06:40:47;;;;;;;5.37;4.97;;;5.50;99.90;;;;;;4995755;28;20434;-74
2021/04/16 06:43:12;;;;;;;6.73;5.37;;;5.50;99.90;;;;;;4989461;28;20483;-73
2021/04/16 06:45:38;;;;;;;7.07;5.50;;;5.60;99.90;;;;;;4990049;28;20959;-73
2021/04/16 06:48:08;;;;;;;5.73;5.13;;;5.60;99.90;;;;;;4992653;28;20428;-73
2021/04/16 06:50:36;;;;;;;6.00;5.50;;;5.70;99.90;;;;;;4989995;28;20258;-74
2021/04/16 06:53:11;;;;;;;6.43;5.83;;;5.80;99.90;;;;;;5023547;22;20878;-77
2021/04/16 06:55:51;;;;;;;5.30;4.80;;;5.90;99.90;;;;;;4995968;28;20534;-76
2021/04/16 06:58:41;;;;;;;5.00;4.60;;;6.00;99.90;;;;;;4986896;28;20466;-77
2021/04/16 07:01:33;;;;;;;5.20;4.70;;;6.00;99.90;;;;;;4982020;28;20502;-77
2021/04/16 07:04:24;;;;;;;4.60;4.20;;;6.10;99.90;;;;;;4982167;28;20831;-76
2021/04/16 07:06:58;;;;;;;4.60;4.10;;;6.20;99.90;;;;;;4992092;28;20524;-76
2021/04/16 07:09:28;;;;;;;4.60;4.20;;;6.40;99.90;;;;;;4968417;28;20945;-77
2021/04/16 07:12:14;;;;;;;4.47;4.17;;;6.40;99.90;;;;;;4969714;28;20463;-77
2021/04/16 07:15:02;;;;;;;4.67;4.17;;;6.30;99.90;;;;;;4977690;28;20481;-77
2021/04/16 07:17:34;;;;;;;4.03;3.50;;;6.30;99.90;;;;;;4979134;28;20473;-77
2021/04/16 07:20:00;;;;;;;4.63;4.23;;;6.30;99.90;;;;;;4973771;28;20425;-77
2021/04/16 07:22:39;;;;;;;4.30;3.87;;;6.30;99.90;;;;;;4973366;28;20452;-77
2021/04/16 07:25:42;;;;;;;3.80;3.50;;;6.30;99.90;;;;;;4970618;28;20507;-77
2021/04/16 07:28:14;;;;;;;4.00;3.70;;;6.40;99.90;;;;;;4961430;28;21251;-77
2021/04/16 07:30:47;;;;;;;5.20;3.30;;;6.50;99.90;;;;;;4967147;28;20428;-77
2021/04/16 07:33:39;;;;;;;3.80;3.50;;;6.50;99.90;;;;;;4981581;28;20459;-78
2021/04/16 07:36:37;;;;;;;3.40;3.00;;;6.60;99.90;;;;;;4981356;28;20425;-78
2021/04/16 07:39:13;;;;;;;3.37;2.80;;;6.70;99.90;;;;;;4967685;28;21028;-77
2021/04/16 07:41:47;;;;;;;3.20;3.00;;;6.80;99.90;;;;;;4971392;28;20462;-78
2021/04/16 07:44:24;;;;;;;3.57;3.27;;;6.90;99.90;;;;;;4989637;28;20435;-75
2021/04/16 07:46:54;;;;;;;4.23;3.57;;;6.80;99.90;;;;;;4961070;28;20789;-76
2021/04/16 07:49:30;;;;;;;3.70;3.40;;;6.80;99.90;;;;;;4967254;28;20433;-77
2021/04/16 07:52:19;;;;;;;3.50;3.20;;;6.90;99.90;;;;;;4966806;28;20490;-77
2021/04/16 07:55:06;;;;;;;3.43;3.13;;;7.00;99.90;;;;;;4969520;28;20484;-77
2021/04/16 07:57:34;;;;;;;3.70;3.40;;;7.20;99.90;;;;;;4973505;28;20566;-77
2021/04/16 08:00:20;;;;;;;3.07;2.87;;;7.20;99.90;;;;;;4976263;28;20849;-77
2021/04/16 08:03:03;;;;;;;2.87;2.67;;;7.30;99.90;;;;;;4969774;28;20793;-77
2021/04/16 08:05:31;;;;;;;3.27;2.97;;;7.40;99.90;;;;;;4986715;28;20460;-77
2021/04/16 08:08:16;;;;;;;3.10;2.87;;;7.60;99.90;;;;;;4973676;28;20514;-77
2021/04/16 08:10:42;;;;;;;3.03;2.83;;;7.70;99.90;;;;;;4966121;28;20432;-76
2021/04/16 08:13:31;;;;;;;3.10;2.90;;;7.90;99.90;;;;;;4967905;28;20449;-77
2021/04/16 08:16:26;;;;;;;3.13;2.87;;;8.00;99.90;;;;;;4990381;28;20494;-77
2021/04/16 08:19:10;;;;;;;2.87;2.67;;;8.10;99.90;;;;;;4963681;28;20480;-76
2021/04/16 08:21:40;;;;;;;3.33;3.13;;;8.10;99.90;;;;;;4959028;28;20969;-74
2021/04/16 08:24:09;;;;;;;2.60;2.50;;;8.20;99.90;;;;;;4961414;28;20500;-75
2021/04/16 08:26:41;;;;;;;3.13;2.70;;;8.20;99.90;;;;;;4958792;28;20436;-76
2021/04/16 08:29:26;;;;;;;3.23;2.50;;;8.30;99.90;;;;;;4961667;28;20536;-77
2021/04/16 08:32:30;;;;;;;3.33;3.13;;;8.40;99.90;;;;;;4968471;28;20488;-76
2021/04/16 08:35:04;;;;;;;3.00;2.70;;;8.30;99.90;;;;;;4954089;28;20436;-77
2021/04/16 08:37:43;;;;;;;3.37;2.60;;;8.40;99.90;;;;;;4969013;28;20835;-77
2021/04/16 08:40:14;;;;;;;2.40;2.30;;;8.50;99.90;;;;;;4961208;28;20799;-77
2021/04/16 08:42:40;;;;;;;4.10;2.50;;;8.50;99.90;;;;;;4984942;28;20453;-77
2021/04/16 08:45:17;;;;;;;2.67;2.47;;;8.30;99.90;;;;;;4974358;28;20442;-77
2021/04/16 08:47:48;;;;;;;2.67;2.47;;;8.30;99.90;;;;;;4959668;28;20510;-77
2021/04/16 08:50:14;;;;;;;5.60;3.10;;;8.40;99.90;;;;;;4989245;28;20419;-77
2021/04/16 08:52:45;;;;;;;2.93;2.60;;;8.50;99.90;;;;;;4968925;28;20795;-77
2021/04/16 08:55:32;;;;;;;3.00;2.40;;;8.50;99.90;;;;;;4975433;28;20192;-76
2021/04/16 08:57:57;;;;;;;3.10;2.80;;;8.60;99.90;;;;;;4963144;28;20464;-75
2021/04/16 09:00:43;;;;;;;2.80;2.60;;;8.70;99.90;;;;;;4975405;28;20863;-77
2021/04/16 09:03:38;;;;;;;3.70;2.60;;;8.90;99.90;;;;;;4964233;28;20221;-77
2021/04/16 09:06:05;;;;;;;2.70;2.50;;;9.00;99.90;;;;;;4966257;28;20543;-76
2021/04/16 09:08:38;;;;;;;4.27;3.30;;;9.10;99.90;;;;;;4972887;28;20444;-77
2021/04/16 09:11:06;;;;;;;2.60;2.40;;;9.00;99.90;;;;;;4964158;28;20438;-77
2021/04/16 09:13:38;;;;;;;3.10;2.90;;;8.90;99.90;;;;;;4974186;28;20445;-75
2021/04/16 09:16:45;;;;;;;3.73;2.70;;;8.90;99.90;;;;;;4962509;28;20442;-78
2021/04/16 09:19:22;;;;;;;3.20;2.90;;;9.00;99.90;;;;;;4962836;28;20482;-76
2021/04/16 09:22:07;;;;;;;4.20;2.90;;;9.00;99.90;;;;;;4968611;28;20461;-77
2021/04/16 09:24:50;;;;;;;4.43;3.33;;;8.90;99.90;;;;;;4969353;28;20967;-77
2021/04/16 09:27:30;;;;;;;2.63;2.43;;;8.80;99.90;;;;;;4973248;28;20949;-77
2021/04/16 09:29:59;;;;;;;3.30;3.00;;;9.00;99.90;;;;;;4965355;28;20443;-77
2021/04/16 09:32:34;;;;;;;3.33;2.47;;;9.20;99.90;;;;;;4971552;28;20457;-77
2021/04/16 09:35:17;;;;;;;3.33;2.67;;;9.30;99.90;;;;;;4961394;28;20814;-77
2021/04/16 09:37:45;;;;;;;2.43;2.23;;;9.40;99.90;;;;;;4960738;28;20544;-77
2021/04/16 09:43:10;;;;;;;3.20;2.83;;;9.20;99.90;;;;;;4961281;28;20574;-77
2021/04/16 09:45:37;;;;;;;3.20;2.93;;;9.20;99.90;;;;;;4959788;28;20435;-77
2021/04/16 09:48:09;;;;;;;2.40;2.20;;;9.10;99.90;;;;;;4969117;28;20812;-78
2021/04/16 09:50:38;;;;;;;3.50;2.67;;;9.00;99.90;;;;;;4969684;28;21003;-77
2021/04/16 09:53:18;;;;;;;4.00;3.67;;;9.00;99.90;;;;;;4970705;28;20494;-77
2021/04/16 09:55:56;;;;;;;2.60;2.40;;;9.20;99.90;;;;;;4969046;28;20991;-77
2021/04/16 09:58:42;;;;;;;2.30;2.20;;;9.20;99.90;;;;;;4974159;28;20550;-76
2021/04/16 10:01:11;;;;;;;2.33;2.00;;;9.60;98.60;;;;;;4960006;28;20513;-77
2021/04/16 10:03:42;;;;;;;2.40;2.10;;;9.60;98.70;;;;;;4984849;28;20539;-77
2021/04/16 10:06:14;;;;;;;2.60;2.40;;;9.70;97.40;;;;;;4972015;28;20963;-77
2021/04/16 10:08:43;;;;;;;2.40;1.87;;;9.90;97.10;;;;;;4968447;28;20466;-77
2021/04/16 10:11:09;;;;;;;1.80;1.70;;;10.10;95.20;;;;;;4970477;28;20446;-76
2021/04/16 10:13:39;;;;;;;2.43;2.23;;;10.10;94.90;;;;;;4989976;28;20459;-76
2021/04/16 10:16:25;;;;;;;3.60;2.67;;;10.00;95.40;;;;;;4969220;28;20433;-77
2021/04/16 10:18:52;;;;;;;2.80;1.83;;;9.90;95.90;;;;;;4967654;28;20496;-77
2021/04/16 10:21:18;;;;;;;2.03;1.87;;;10.10;94.30;;;;;;4972673;28;20463;-77
2021/04/16 10:23:50;;;;;;;3.50;2.13;;;10.00;93.90;;;;;;4966322;28;20802;-77
2021/04/16 10:51:22;;;;;;;3.07;1.97;;;10.00;91.10;;;;;;4980707;28;20448;-80
2021/04/16 11:29:01;;;;;;;1.70;1.60;;;9.80;90.20;;;;;;4978136;28;20464;-76
2021/04/16 12:38:11;;;;;;;2.03;1.93;;;11.00;90.10;;;;;;4967306;28;20581;-78
2021/04/16 12:40:36;;;;;;;2.57;2.37;;;11.30;89.30;;;;;;4962159;28;20457;-77
2021/04/16 12:43:05;;;;;;;2.20;1.90;;;11.50;88.60;;;;;;4955384;28;20479;-78
2021/04/16 12:45:31;;;;;;;2.03;1.90;;;11.40;88.60;;;;;;4965983;28;20534;-76
2021/04/16 12:47:58;;;;;;;2.50;2.30;;;11.40;88.40;;;;;;4964949;28;20526;-78
2021/04/16 12:50:30;;;;;;;2.60;2.20;;;11.60;89.60;;;;;;4977901;28;20566;-78
2021/04/16 12:52:56;;;;;;;2.57;2.37;;;11.50;87.60;;;;;;5019346;23;20501;-77
2021/04/16 12:55:21;;;;;;;2.00;1.80;;;11.20;89.90;;;;;;5011523;28;20418;-80
2021/04/16 12:57:54;;;;;;;2.50;2.30;;;11.20;87.70;;;;;;5003229;28;20700;-78
2021/04/16 13:00:21;;;;;;;2.57;2.17;;;11.20;88.90;;;;;;5003769;28;20184;-79
2021/04/16 13:02:53;;;;;;;1.97;1.87;;;11.20;88.30;;;;;;5006440;28;20981;-78
2021/04/16 13:05:19;;;;;;;5.00;1.90;;;11.30;87.20;;;;;;5004771;28;20923;-78
2021/04/16 13:07:44;;;;;;;2.63;2.20;;;11.30;86.70;;;;;;5003109;28;20416;-75
2021/04/16 13:10:16;;;;;;;2.50;2.27;;;11.40;88.50;;;;;;5006025;28;20323;-79
2021/04/16 13:12:42;;;;;;;2.00;1.90;;;11.50;87.70;;;;;;4996520;28;20237;-75
2021/04/16 13:15:08;;;;;;;1.90;1.80;;;11.50;87.30;;;;;;5004591;28;20449;-79
2021/04/16 13:17:35;;;;;;;1.97;1.87;;;11.50;88.50;;;;;;5006318;28;20481;-84
2021/04/16 13:20:01;;;;;;;2.70;2.27;;;11.30;89.20;;;;;;5002725;28;20979;-76
2021/04/16 13:22:27;;;;;;;2.40;2.20;;;11.30;88.20;;;;;;5004049;28;20467;-76
2021/04/16 13:24:54;;;;;;;2.47;2.17;;;11.10;88.40;;;;;;5006388;28;20786;-76
2021/04/16 13:27:25;;;;;;;2.57;2.30;;;10.80;89.70;;;;;;5013266;28;20438;-79
2021/04/16 13:29:51;;;;;;;2.73;2.00;;;10.80;90.50;;;;;;5002841;28;20450;-77
2021/04/16 13:32:20;;;;;;;2.83;2.50;;;10.80;90.30;;;;;;4999512;28;20466;-78
2021/04/16 13:34:46;;;;;;;2.30;2.10;;;10.60;90.90;;;;;;5002357;28;20250;-77
2021/04/16 13:37:18;;;;;;;2.50;2.30;;;10.10;91.20;;;;;;4998100;28;20462;-78
2021/04/16 13:39:44;;;;;;;2.10;2.00;;;9.70;92.80;;;;;;5005565;28;20451;-77
2021/04/16 13:42:10;;;;;;;2.20;2.00;;;9.50;94.20;;;;;;5005488;28;20446;-77
2021/04/16 13:44:36;;;;;;;2.60;2.40;;;9.60;94.90;;;;;;5017310;28;20415;-77
2021/04/16 13:47:03;;;;;;;5.53;2.37;;;9.60;96.40;;;;;;5007046;28;20425;-76
2021/04/16 13:49:39;;;;;;;2.83;2.63;;;9.80;97.30;;;;;;5003291;28;20254;-77
2021/04/16 13:52:06;;;;;;;2.97;2.77;;;10.00;96.30;;;;;;5005224;28;20466;-77
2021/04/16 13:54:34;;;;;;;2.60;2.40;;;10.10;96.20;;;;;;5003337;28;20422;-77
2021/04/16 13:57:00;;;;;;;2.67;2.47;;;10.20;96.40;;;;;;4993832;28;20992;-78
2021/04/16 13:59:26;;;;;;;3.20;2.33;;;10.20;96.30;;;;;;5001689;28;20566;-77
2021/04/16 14:01:53;;;;;;;2.93;2.73;;;10.40;96.70;;;;;;5004633;28;20180;-78
2021/04/16 14:04:23;;;;;;;2.47;2.27;;;10.20;96.30;;;;;;5021224;28;20180;-78
2021/04/16 14:06:50;;;;;;;2.47;2.27;;;10.00;96.20;;;;;;5020995;28;20419;-79
2021/04/16 14:09:20;;;;;;;2.90;2.57;;;10.00;97.60;;;;;;5001443;28;20466;-77
2021/04/16 14:11:46;;;;;;;5.50;2.30;;;10.10;95.60;;;;;;5006159;28;20438;-77
2021/04/16 14:14:16;;;;;;;3.60;2.03;;;10.00;96.30;;;;;;5004586;28;20435;-78
2021/04/16 14:16:43;;;;;;;2.30;1.97;;;10.10;96.40;;;;;;5012499;28;20418;-78
2021/04/16 14:19:16;;;;;;;2.40;2.30;;;10.10;96.50;;;;;;5002594;28;20459;-77
2021/04/16 14:21:43;;;;;;;3.00;2.73;;;10.10;96.80;;;;;;5006795;28;20568;-76
2021/04/16 14:24:11;;;;;;;2.23;1.90;;;10.10;96.90;;;;;;5006341;28;20943;-78
2021/04/16 14:26:38;;;;;;;2.10;2.00;;;9.90;97.00;;;;;;5005016;28;20425;-79
2021/04/16 14:29:04;;;;;;;2.90;2.30;;;10.00;96.40;;;;;;5001349;28;20436;-77
2021/04/16 14:31:30;;;;;;;2.03;1.77;;;10.10;96.40;;;;;;5006129;28;20418;-78
2021/04/16 14:33:55;;;;;;;2.23;2.13;;;10.00;96.20;;;;;;4999973;28;20530;-78
2021/04/16 14:36:21;;;;;;;2.57;2.37;;;9.90;96.80;;;;;;5003393;28;20195;-77
2021/04/16 14:38:47;;;;;;;3.00;2.23;;;9.80;96.50;;;;;;5009021;28;20771;-78
2021/04/16 14:41:18;;;;;;;4.50;2.60;;;9.80;97.00;;;;;;5004295;28;20180;-77
2021/04/16 14:43:43;;;;;;;2.00;1.90;;;9.70;97.10;;;;;;5017353;28;20204;-77
2021/04/16 14:46:09;;;;;;;2.13;2.03;;;9.70;96.80;;;;;;5007848;28;20441;-77
2021/04/16 14:48:35;;;;;;;3.50;3.20;;;9.70;96.90;;;;;;5007753;28;20215;-77
2021/04/16 14:51:06;;;;;;;2.73;2.20;;;9.80;97.30;;;;;;5013060;28;20192;-78
2021/04/16 14:53:40;;;;;;;2.00;1.90;;;9.90;96.50;;;;;;5006885;28;20231;-77
2021/04/16 14:56:08;;;;;;;2.03;1.90;;;9.70;96.10;;;;;;5007688;28;20439;-76
2021/04/16 14:58:41;;;;;;;2.40;2.20;;;9.60;96.60;;;;;;5009214;28;20986;-78
2021/04/16 15:01:07;;;;;;;2.50;2.30;;;9.50;97.20;;;;;;5000912;28;20431;-77
2021/04/16 15:03:34;;;;;;;2.63;2.43;;;9.70;97.60;;;;;;5007657;28;20435;-76
2021/04/16 15:06:01;;;;;;;2.50;2.30;;;9.70;97.70;;;;;;5019828;28;20442;-78
2021/04/16 15:08:33;;;;;;;2.47;2.33;;;9.90;97.10;;;;;;4999939;28;20432;-77
2021/04/16 15:11:08;;;;;;;2.20;2.00;;;9.90;96.20;;;;;;5010023;28;20433;-76
2021/04/16 15:13:35;;;;;;;2.40;2.20;;;9.80;96.60;;;;;;5017998;28;20457;-79
2021/04/16 15:16:04;;;;;;;2.00;1.90;;;9.80;96.20;;;;;;5007395;28;20521;-77
2021/04/16 15:18:31;;;;;;;2.00;1.90;;;9.80;96.50;;;;;;5006434;28;20490;-76